Latest Weather Observations for Albury

IDV60801

Issued at 3:02 pm EDT Monday 22 December 2014 (issued every 30 minutes, with the page automatically refreshed every 10 minutes)

About weather observations | Map of weather stations | Latest weather observations for VIC | Other Formats
Station Details ID: 072160 Name: ALBURY AIRPORT AWS Lat: -36.07 Lon: 146.95 Height: 163.5 m
Data from the previous 72 hours. | See also: Recent months at Albury
Date/Time
EDT
Temp
°C
App
Temp
°C
Dew
Point
Rel
Hum
%
Delta-T
°C
Wind Press
QNH
hPa
Press
MSL
hPa
Rain
since 9 am
mm
Dir
 
Spd
km/h
Gust
km/h
Spd
kts
Gust
kts
22/03:00pm 26.4 26.0 15.1 49 6.9 SE 11 15 6 8 1010.6 1010.0 0.0
22/02:30pm 28.8 26.4 12.7 37 9.5 NNE 17 26 9 14 1011.0 1010.4 0.0
22/02:15pm 29.9 25.8 11.4 32 10.8 N 24 43 13 23 1011.4 1010.8 0.0
22/02:00pm 28.0 25.6 13.9 42 8.5 NE 19 22 10 12 1011.0 1010.4 0.0
22/01:30pm 28.9 25.9 13.6 39 9.2 E 22 37 12 20 1010.3 1009.6 0.0
22/01:00pm 32.6 30.5 12.3 29 12.1 SE 15 24 8 13 1010.5 1009.9 0.0
22/12:30pm 34.7 32.0 11.8 25 13.7 NNE 17 28 9 15 1011.2 1010.6 0.0
22/12:00pm 33.8 30.7 12.2 27 12.9 NE 20 28 11 15 1012.0 1011.4 0.0
22/11:30am 33.2 30.8 12.8 29 12.3 NNE 17 28 9 15 1012.4 1011.8 0.0
22/11:00am 31.9 30.8 13.2 32 11.3 NNE 11 19 6 10 1012.7 1012.1 0.0
22/10:30am 29.6 28.3 12.5 35 10.1 ESE 11 17 6 9 1013.0 1012.4 0.0
22/10:00am 28.8 28.2 13.5 39 9.2 SE 9 17 5 9 1013.5 1012.9 0.0
22/09:30am 27.0 25.9 13.0 42 8.3 ESE 11 15 6 8 1013.4 1012.8 0.0
22/09:00am 25.7 24.7 13.5 46 7.2 ESE 11 17 6 9 1013.5 1012.9 0.0
22/08:30am 23.4 22.6 13.0 52 6.0 ESE 9 15 5 8 1013.5 1012.9 0.0
22/08:00am 21.6 22.0 12.5 56 5.2 SSE 2 7 1 4 1013.5 1012.9 0.0
22/07:30am 20.0 19.9 12.0 60 4.5 SSE 4 7 2 4 1013.0 1012.4 0.0
22/07:00am 19.0 19.5 11.6 62 4.1 CALM 0 0 0 0 1013.0 1012.4 0.0
22/06:30am 18.5 17.8 11.3 63 4.0 SE 6 9 3 5 1012.6 1012.0 0.0
22/05:30am 18.1 18.3 10.7 62 4.0 CALM 0 0 0 0 1012.0 1011.4 0.0
22/05:00am 17.9 17.0 10.5 62 4.0 SE 6 7 3 4 1011.9 1011.3 0.0
22/04:30am 18.4 18.0 11.2 63 3.9 NNE 4 7 2 4 1011.9 1011.3 0.0
22/04:00am 19.0 19.4 11.3 61 4.2 CALM 0 6 0 3 1011.7 1011.1 0.0
22/03:30am 18.4 18.9 11.7 65 3.7 CALM 0 0 0 0 1011.8 1011.2 0.0
22/03:00am 18.6 19.2 11.9 65 3.7 CALM 0 0 0 0 1012.0 1011.4 0.0
22/02:30am 18.3 18.0 11.4 64 3.8 ESE 4 6 2 3 1012.0 1011.4 0.0
22/02:00am 20.6 20.4 11.8 57 4.9 SE 4 7 2 4 1012.3 1011.7 0.0
22/01:30am 19.9 20.3 11.4 58 4.7 CALM 0 0 0 0 1012.5 1011.9 0.0
22/01:00am 21.0 21.1 11.6 55 5.3 SE 2 7 1 4 1012.7 1012.1 0.0
22/12:30am 21.1 21.5 11.4 54 5.4 CALM 0 0 0 0 1012.8 1012.2 0.0
22/12:00am 22.0 22.4 11.4 51 5.9 CALM 0 0 0 0 1013.0 1012.4 0.0
 
Date/Time
EDT
Temp
°C
App
Temp
°C
Dew
Point
Rel
Hum
%
Delta-T
°C
Wind Press
QNH
hPa
Press
MSL
hPa
Rain
since 9 am
mm
Dir
 
Spd
km/h
Gust
km/h
Spd
kts
Gust
kts
21/11:30pm 23.4 23.7 10.8 45 7.0 CALM 0 0 0 0 1012.9 1012.3 0.0
21/11:00pm 24.2 23.7 11.9 46 7.0 ESE 6 11 3 6 1013.0 1012.4 0.0
21/10:30pm 25.8 26.2 11.2 40 8.3 CALM 0 0 0 0 1012.9 1012.3 0.0
21/10:00pm 25.3 25.8 11.5 42 7.9 CALM 0 0 0 0 1012.6 1012.0 0.0
21/09:30pm 25.3 25.5 10.7 40 8.2 CALM 0 4 0 2 1012.4 1011.8 0.0
21/09:00pm 26.6 25.1 10.7 37 9.0 SE 9 13 5 7 1012.0 1011.4 0.0
21/08:30pm 27.9 26.5 9.7 32 10.2 SSE 7 9 4 5 1011.8 1011.2 0.0
21/08:00pm 29.3 27.9 9.4 29 11.2 SSE 7 11 4 6 1011.8 1011.2 0.0
21/07:30pm 30.0 27.7 9.0 27 11.8 SE 11 13 6 7 1011.5 1010.9 0.0
21/07:00pm 30.9 28.0 8.0 24 12.7 SE 13 19 7 10 1011.3 1010.7 0.0
21/06:30pm 32.2 28.5 7.8 22 13.5 SE 17 26 9 14 1011.3 1010.7 0.0
21/06:00pm 31.9 28.5 7.5 22 13.5 SSE 15 19 8 10 1011.2 1010.6 0.0
21/05:30pm 32.7 30.4 7.5 21 14.0 ESE 9 17 5 9 1011.3 1010.7 0.0
21/05:00pm 33.4 30.1 8.1 21 14.2 E 15 24 8 13 1011.4 1010.8 0.0
21/04:30pm 32.3 29.4 6.5 20 14.0 ESE 11 19 6 10 1011.7 1011.1 0.0
21/04:00pm 32.1 30.6 7.0 21 13.8 N 4 11 2 6 1012.1 1011.5 0.0
21/03:30pm 32.0 30.2 7.0 21 13.7 SSE 6 11 3 6 1012.6 1012.0 0.0
21/03:00pm 31.4 28.4 7.8 23 13.1 W 13 24 7 13 1013.0 1012.4 0.0
21/02:30pm 32.2 29.7 8.4 23 13.3 SSW 11 19 6 10 1013.3 1012.7 0.0
21/02:00pm 30.7 28.0 7.2 23 12.8 SSE 11 17 6 9 1013.6 1013.0 0.0
21/01:30pm 31.7 29.8 10.4 27 12.3 SSW 11 20 6 11 1013.9 1013.3 0.0
21/01:00pm 30.8 28.1 7.3 23 12.8 NNW 11 24 6 13 1014.2 1013.6 0.0
21/12:30pm 31.2 28.8 10.0 27 12.1 WNW 13 20 7 11 1014.6 1014.0 0.0
21/12:00pm 29.8 28.0 9.3 28 11.5 NNE 9 20 5 11 1014.9 1014.3 0.0
21/11:30am 29.0 27.0 10.2 31 10.7 NE 11 17 6 9 1015.3 1014.7 0.0
21/11:00am 27.9 27.6 12.7 39 8.9 E 6 11 3 6 1015.4 1014.8 0.0
21/10:30am 27.1 26.0 13.1 42 8.3 SE 11 19 6 10 1015.8 1015.2 0.0
21/10:00am 25.1 24.2 13.6 49 6.8 SE 11 15 6 8 1016.2 1015.6 0.0
21/09:30am 23.6 23.4 12.9 51 6.2 E 6 11 3 6 1016.7 1016.1 0.0
21/09:00am 22.9 22.6 13.4 55 5.5 ESE 7 9 4 5 1016.7 1016.1 0.0
21/08:30am 21.2 21.0 12.9 59 4.8 SE 6 9 3 5 1016.6 1016.0 0.0
21/08:00am 19.9 20.6 12.2 61 4.3 CALM 0 0 0 0 1016.2 1015.6 0.0
21/07:30am 18.4 17.8 11.7 65 3.7 ESE 6 7 3 4 1015.6 1015.0 0.0
21/07:00am 16.7 15.9 11.8 73 2.7 SSE 7 11 4 6 1015.3 1014.7 0.0
21/06:30am 15.7 15.2 11.9 78 2.1 SE 6 9 3 5 1015.0 1014.4 0.0
21/06:00am 14.5 14.9 11.3 81 1.7 CALM 0 0 0 0 1014.7 1014.1 0.0
21/05:30am 14.6 14.2 11.2 80 1.8 SSW 4 9 2 5 1014.4 1013.8 0.0
21/05:00am 14.7 13.6 10.7 77 2.1 NE 7 9 4 5 1014.4 1013.8 0.0
21/04:30am 16.3 15.9 11.2 72 2.8 ESE 4 7 2 4 1014.1 1013.5 0.0
21/04:00am 16.2 16.4 10.7 70 2.9 CALM 0 0 0 0 1014.0 1013.4 0.0
21/03:30am 16.3 16.5 10.6 69 3.1 CALM 0 0 0 0 1014.1 1013.5 0.0
21/03:00am 16.8 17.0 10.6 67 3.3 CALM 0 0 0 0 1014.2 1013.6 0.0
21/02:30am 17.5 16.6 10.6 64 3.7 SSE 6 7 3 4 1014.3 1013.7 0.0
21/02:00am 18.0 17.0 11.1 64 3.8 SE 7 9 4 5 1014.4 1013.8 0.0
21/01:30am 17.6 16.7 10.7 64 3.7 S 6 6 3 3 1014.5 1013.9 0.0
21/01:00am 17.7 17.8 10.3 62 4.0 CALM 0 6 0 3 1014.6 1014.0 0.0
21/12:30am 17.7 17.8 10.1 61 4.1 CALM 0 0 0 0 1014.7 1014.1 0.0
21/12:00am 18.6 18.7 10.2 58 4.5 CALM 0 0 0 0 1014.6 1014.0 0.0
 
Date/Time
EDT
Temp
°C
App
Temp
°C
Dew
Point
Rel
Hum
%
Delta-T
°C
Wind Press
QNH
hPa
Press
MSL
hPa
Rain
since 9 am
mm
Dir
 
Spd
km/h
Gust
km/h
Spd
kts
Gust
kts
20/11:30pm 18.2 18.3 10.1 59 4.3 CALM 0 0 0 0 1014.6 1014.0 0.0
20/11:00pm 18.9 17.8 10.5 58 4.6 SSE 7 11 4 6 1014.5 1013.9 0.0
20/10:30pm 20.4 20.4 9.9 51 5.7 CALM 0 0 0 0 1014.4 1013.8 0.0
20/10:00pm 22.0 20.5 9.2 44 6.9 N 7 11 4 6 1014.4 1013.8 0.0
20/09:30pm 22.7 20.5 8.0 39 7.8 NNW 9 9 5 5 1014.0 1013.4 0.0
20/09:00pm 23.6 21.7 7.7 36 8.4 WSW 7 9 4 5 1013.9 1013.3 0.0
20/08:30pm 25.7 23.4 7.3 31 9.8 SW 9 11 5 6 1013.7 1013.1 0.0
20/08:00pm 27.4 24.6 6.8 27 11.0 SW 11 13 6 7 1013.7 1013.1 0.0
20/07:30pm 28.3 25.0 6.4 25 11.6 SW 13 17 7 9 1013.4 1012.8 0.0
20/07:00pm 29.3 26.9 7.2 25 12.0 SSW 9 13 5 7 1013.1 1012.5 0.0
20/06:30pm 28.9 25.2 8.0 27 11.4 S 17 26 9 14 1012.9 1012.3 0.0
20/06:00pm 29.5 27.3 8.0 26 11.8 SSE 9 17 5 9 1012.7 1012.1 0.0
20/05:30pm 29.0 26.1 6.4 24 12.1 WSW 11 20 6 11 1012.9 1012.3 0.0
20/05:00pm 29.5 27.6 6.8 24 12.2 N 6 13 3 7 1013.1 1012.5 0.0
20/04:30pm 28.8 26.5 7.4 26 11.6 NW 9 15 5 8 1013.4 1012.8 0.0
20/04:00pm 28.8 26.4 6.8 25 11.8 W 9 19 5 10 1013.9 1013.3 0.0
20/03:30pm 29.0 26.6 8.7 28 11.3 SW 11 20 6 11 1014.4 1013.8 0.0
20/03:00pm 27.9 24.9 7.7 28 10.9 W 13 22 7 12 1014.8 1014.2 0.0
20/02:30pm 27.3 24.4 8.2 30 10.4 WSW 13 19 7 10 1015.2 1014.6 0.0
20/02:00pm 26.3 23.7 7.8 31 10.0 SSE 11 15 6 8 1015.5 1014.9 0.0
20/01:30pm 25.8 22.2 8.3 33 9.5 S 17 22 9 12 1016.0 1015.4 0.0
20/01:00pm 25.7 23.7 8.7 34 9.3 ENE 9 13 5 7 1016.3 1015.7 0.0
20/12:30pm 24.6 21.5 7.3 33 9.1 SSE 13 20 7 11 1016.7 1016.1 0.0
20/12:00pm 24.8 23.0 7.9 34 9.0 W 7 20 4 11 1017.0 1016.4 0.0
20/11:30am 23.3 20.8 6.6 34 8.6 NW 9 15 5 8 1017.3 1016.7 0.0
20/11:00am 22.8 21.0 7.8 38 7.9 S 7 13 4 7 1017.5 1016.9 0.0
20/10:30am 21.4 19.9 9.0 45 6.6 NNW 7 13 4 7 1017.6 1017.0 0.0
20/10:00am 20.6 18.6 8.6 46 6.3 SW 9 13 5 7 1017.9 1017.3 0.0
20/09:30am 19.9 18.3 8.6 48 5.9 ESE 7 13 4 7 1018.0 1017.4 0.0
20/09:00am 18.7 17.2 8.4 51 5.4 SE 6 13 3 7 1017.8 1017.2 0.0
20/08:30am 17.7 16.2 9.3 58 4.4 SSE 7 13 4 7 1017.6 1017.0 0.0
20/08:00am 16.2 14.7 8.4 60 4.0 S 6 7 3 4 1017.5 1016.9 0.0
20/07:30am 14.6 14.0 7.6 63 3.5 CALM 0 6 0 3 1017.2 1016.6 0.0
20/07:00am 13.6 12.0 7.8 68 2.9 SSE 6 7 3 4 1016.9 1016.3 0.0
20/06:30am 11.9 10.0 7.6 75 2.1 S 7 9 4 5 1016.6 1016.0 0.0
20/06:00am 11.3 10.6 6.8 74 2.2 CALM 0 0 0 0 1016.6 1016.0 0.0
20/05:30am 11.5 9.4 6.8 73 2.3 SSW 7 9 4 5 1016.3 1015.7 0.0
20/05:00am 11.7 9.2 6.4 70 2.5 SSW 9 11 5 6 1016.1 1015.5 0.0
20/04:30am 12.4 11.7 6.9 69 2.7 CALM 0 0 0 0 1015.9 1015.3 0.0
20/04:00am 12.2 9.3 6.7 69 2.6 SSW 11 13 6 7 1015.8 1015.2 0.0
20/03:30am 13.3 11.7 6.2 62 3.4 S 4 6 2 3 1015.8 1015.2 0.0
20/03:00am 13.6 11.6 6.2 61 3.6 SSW 6 9 3 5 1015.9 1015.3 0.0
20/02:30am 14.0 11.8 6.1 59 3.8 SSW 7 9 4 5 1016.0 1015.4 0.0
20/02:00am 13.7 10.7 5.8 59 3.8 SSW 11 13 6 7 1016.1 1015.5 0.0
20/01:30am 15.0 12.4 6.0 55 4.4 S 9 11 5 6 1016.3 1015.7 0.0
20/01:00am 14.5 11.8 5.6 55 4.3 SW 9 13 5 7 1016.4 1015.8 0.0
20/12:30am 15.1 13.0 5.6 53 4.6 S 6 7 3 4 1016.4 1015.8 0.0
20/12:00am 16.0 13.7 5.6 50 5.0 S 7 9 4 5 1016.5 1015.9 0.0
 
Date/Time
EDT
Temp
°C
App
Temp
°C
Dew
Point
Rel
Hum
%
Delta-T
°C
Wind Press
QNH
hPa
Press
MSL
hPa
Rain
since 9 am
mm
Dir
 
Spd
km/h
Gust
km/h
Spd
kts
Gust
kts
19/11:30pm 16.6 13.9 5.6 48 5.3 WSW 9 13 5 7 1016.5 1015.9 0.0
19/11:00pm 17.1 14.0 5.4 46 5.7 W 11 17 6 9 1016.5 1015.9 0.0
19/10:30pm 17.7 14.2 5.3 44 6.0 WSW 13 19 7 10 1016.3 1015.7 0.0
19/10:00pm 18.1 14.2 5.3 43 6.2 WSW 15 22 8 12 1016.1 1015.5 0.0
19/09:30pm 18.6 13.9 5.1 41 6.6 W 19 26 10 14 1015.9 1015.3 0.0
19/09:00pm 19.2 14.4 4.9 39 7.0 W 19 24 10 13 1015.9 1015.3 0.0
19/08:30pm 19.9 14.9 4.8 37 7.4 W 20 32 11 17 1015.6 1015.0 0.0
19/08:00pm 20.9 15.6 4.9 35 7.9 W 22 30 12 16 1015.2 1014.6 0.0
19/07:30pm 22.0 16.6 4.6 32 8.6 W 22 32 12 17 1014.7 1014.1 0.0
19/07:00pm 22.7 17.0 4.7 31 9.0 W 24 35 13 19 1014.3 1013.7 0.0
19/06:30pm 23.2 17.6 3.7 28 9.6 WSW 22 32 12 17 1013.9 1013.3 0.0
19/06:00pm 23.6 17.5 3.0 26 10.0 W 24 33 13 18 1013.5 1012.9 0.0
19/05:30pm 24.2 19.3 5.1 29 9.7 WNW 20 28 11 15 1013.4 1012.8 0.0
19/05:00pm 24.0 18.8 3.3 26 10.1 WSW 20 32 11 17 1013.4 1012.8 0.0
19/04:30pm 23.9 18.7 3.8 27 9.9 WSW 20 32 11 17 1013.4 1012.8 0.0
19/04:00pm 23.8 18.5 3.2 26 10.1 WSW 20 30 11 16 1013.5 1012.9 0.0
19/03:30pm 23.6 19.0 3.5 27 9.8 WSW 17 30 9 16 1013.5 1012.9 0.0

Other Formats:

Comma delimited format used in spreadsheet applications
http://www.bom.gov.au/fwo/IDV60801/IDV60801.95896.axf

JavaScript Object Notation format (JSON) in row-major order
http://www.bom.gov.au/fwo/IDV60801/IDV60801.95896.json